Fivepointville, Pennsylvania
Current Conditions -  °F | °C
As of 6:53 AM on Sunday 23 Nov 2014 (Local Time) from KLNS Reporting Station
Overcast Overcast  
Wind Chill: 34°   Ceiling: 7000
Heat Index: 34°   Visibility: 10mi
Dew Point: 26°   Wind: 0mph
Humidity: 73%   Direction: NA
Pressure: 30.21"   Gusts: NA
Location:  40.2429°N, 76.1265°W
Report Text: KLNS 231153Z 00000KT 10SM OVC070 01/M03 A3021 RMK AO2 SLP234 T00111033 10022 21017 53007
Loading
Personal Weather Stations






























Interactive Weather Map New forecast layout! Learn more

10-Day Weather Forecast

Advertisements
Track Severe Weather on mobile